sensor_id;sensor_type;location;lat;lon;timestamp;temperature;humidity
23499;DHT22;11926;48.120;11.562;2022-07-29T00:00:49;22.30;71.30
23499;DHT22;11926;48.120;11.562;2022-07-29T00:03:36;22.30;70.70
23499;DHT22;11926;48.120;11.562;2022-07-29T00:06:25;22.20;70.90
23499;DHT22;11926;48.120;11.562;2022-07-29T00:09:13;22.20;71.30
23499;DHT22;11926;48.120;11.562;2022-07-29T00:12:00;22.20;71.50
23499;DHT22;11926;48.120;11.562;2022-07-29T00:14:49;22.20;71.70
23499;DHT22;11926;48.120;11.562;2022-07-29T00:17:36;22.10;72.20
23499;DHT22;11926;48.120;11.562;2022-07-29T00:20:23;22.10;72.90
23499;DHT22;11926;48.120;11.562;2022-07-29T00:23:10;22.10;73.00
23499;DHT22;11926;48.120;11.562;2022-07-29T00:26:00;22.00;73.40
23499;DHT22;11926;48.120;11.562;2022-07-29T00:28:47;21.90;73.80
23499;DHT22;11926;48.120;11.562;2022-07-29T00:31:34;21.80;74.10
23499;DHT22;11926;48.120;11.562;2022-07-29T00:34:21;21.80;74.50
23499;DHT22;11926;48.120;11.562;2022-07-29T00:37:22;21.80;74.60
23499;DHT22;11926;48.120;11.562;2022-07-29T00:40:08;21.80;74.40
23499;DHT22;11926;48.120;11.562;2022-07-29T00:42:56;21.80;74.30
23499;DHT22;11926;48.120;11.562;2022-07-29T00:45:44;21.80;74.10
23499;DHT22;11926;48.120;11.562;2022-07-29T00:48:31;21.80;73.90
23499;DHT22;11926;48.120;11.562;2022-07-29T00:51:18;21.80;73.70
23499;DHT22;11926;48.120;11.562;2022-07-29T00:54:05;21.90;73.60
23499;DHT22;11926;48.120;11.562;2022-07-29T00:56:53;21.90;73.60
23499;DHT22;11926;48.120;11.562;2022-07-29T00:59:41;21.90;73.30
23499;DHT22;11926;48.120;11.562;2022-07-29T01:02:28;21.90;73.20
23499;DHT22;11926;48.120;11.562;2022-07-29T01:05:17;21.90;73.00
23499;DHT22;11926;48.120;11.562;2022-07-29T01:08:06;21.90;72.70
23499;DHT22;11926;48.120;11.562;2022-07-29T01:10:53;21.90;72.40
23499;DHT22;11926;48.120;11.562;2022-07-29T01:13:41;21.90;72.20
23499;DHT22;11926;48.120;11.562;2022-07-29T01:16:32;21.90;72.10
23499;DHT22;11926;48.120;11.562;2022-07-29T01:19:45;21.90;72.00
23499;DHT22;11926;48.120;11.562;2022-07-29T01:22:50;21.80;71.70
23499;DHT22;11926;48.120;11.562;2022-07-29T01:25:58;21.80;71.40
23499;DHT22;11926;48.120;11.562;2022-07-29T01:29:00;21.80;71.20
23499;DHT22;11926;48.120;11.562;2022-07-29T01:31:56;21.80;71.10
23499;DHT22;11926;48.120;11.562;2022-07-29T01:34:49;21.80;71.00
23499;DHT22;11926;48.120;11.562;2022-07-29T01:37:56;21.80;71.40
23499;DHT22;11926;48.120;11.562;2022-07-29T01:40:46;21.80;71.40
23499;DHT22;11926;48.120;11.562;2022-07-29T01:43:39;21.80;70.90
23499;DHT22;11926;48.120;11.562;2022-07-29T01:46:30;21.80;70.70
23499;DHT22;11926;48.120;11.562;2022-07-29T01:49:22;21.80;70.90
23499;DHT22;11926;48.120;11.562;2022-07-29T01:52:15;21.80;70.90
23499;DHT22;11926;48.120;11.562;2022-07-29T01:55:13;21.80;70.60
23499;DHT22;11926;48.120;11.562;2022-07-29T01:58:01;21.70;70.50
23499;DHT22;11926;48.120;11.562;2022-07-29T02:00:50;21.70;70.50
23499;DHT22;11926;48.120;11.562;2022-07-29T02:03:43;21.70;70.50
23499;DHT22;11926;48.120;11.562;2022-07-29T02:06:33;21.70;70.50
23499;DHT22;11926;48.120;11.562;2022-07-29T02:09:22;21.60;70.70
23499;DHT22;11926;48.120;11.562;2022-07-29T02:12:11;21.60;70.70
23499;DHT22;11926;48.120;11.562;2022-07-29T02:15:01;21.70;70.80
23499;DHT22;11926;48.120;11.562;2022-07-29T02:17:53;21.70;70.70
23499;DHT22;11926;48.120;11.562;2022-07-29T02:20:45;21.70;70.80
23499;DHT22;11926;48.120;11.562;2022-07-29T02:23:35;21.70;70.90
23499;DHT22;11926;48.120;11.562;2022-07-29T02:26:36;21.70;70.90
23499;DHT22;11926;48.120;11.562;2022-07-29T02:29:26;21.60;71.10
23499;DHT22;11926;48.120;11.562;2022-07-29T02:32:16;21.60;71.30
23499;DHT22;11926;48.120;11.562;2022-07-29T02:35:05;21.60;71.30
23499;DHT22;11926;48.120;11.562;2022-07-29T02:37:54;21.60;71.50
23499;DHT22;11926;48.120;11.562;2022-07-29T02:40:57;21.60;71.80
23499;DHT22;11926;48.120;11.562;2022-07-29T02:43:47;21.50;71.90
23499;DHT22;11926;48.120;11.562;2022-07-29T02:46:37;21.50;72.20
23499;DHT22;11926;48.120;11.562;2022-07-29T02:49:34;21.50;72.20
23499;DHT22;11926;48.120;11.562;2022-07-29T02:52:26;21.50;72.40
23499;DHT22;11926;48.120;11.562;2022-07-29T02:55:19;21.40;72.50
23499;DHT22;11926;48.120;11.562;2022-07-29T02:58:14;21.40;72.70
23499;DHT22;11926;48.120;11.562;2022-07-29T03:01:03;21.40;72.90
23499;DHT22;11926;48.120;11.562;2022-07-29T03:03:53;21.40;73.30
23499;DHT22;11926;48.120;11.562;2022-07-29T03:06:41;21.40;73.60
23499;DHT22;11926;48.120;11.562;2022-07-29T03:09:30;21.40;74.00
23499;DHT22;11926;48.120;11.562;2022-07-29T03:12:19;21.30;74.00
23499;DHT22;11926;48.120;11.562;2022-07-29T03:15:07;21.30;74.40
23499;DHT22;11926;48.120;11.562;2022-07-29T03:17:55;21.30;74.30
23499;DHT22;11926;48.120;11.562;2022-07-29T03:20:42;21.20;74.80
23499;DHT22;11926;48.120;11.562;2022-07-29T03:23:30;21.10;75.00
23499;DHT22;11926;48.120;11.562;2022-07-29T03:26:21;21.00;75.40
23499;DHT22;11926;48.120;11.562;2022-07-29T03:29:10;21.00;75.60
23499;DHT22;11926;48.120;11.562;2022-07-29T03:31:58;20.90;75.90
23499;DHT22;11926;48.120;11.562;2022-07-29T03:34:47;20.90;76.10
23499;DHT22;11926;48.120;11.562;2022-07-29T03:37:34;20.80;76.40
23499;DHT22;11926;48.120;11.562;2022-07-29T03:40:24;20.80;76.70
23499;DHT22;11926;48.120;11.562;2022-07-29T03:43:13;20.80;77.10
23499;DHT22;11926;48.120;11.562;2022-07-29T03:46:06;20.70;77.30
23499;DHT22;11926;48.120;11.562;2022-07-29T03:48:58;20.70;77.30
23499;DHT22;11926;48.120;11.562;2022-07-29T03:51:46;20.60;77.60
23499;DHT22;11926;48.120;11.562;2022-07-29T03:54:34;20.60;77.80
23499;DHT22;11926;48.120;11.562;2022-07-29T03:57:24;20.50;78.00
23499;DHT22;11926;48.120;11.562;2022-07-29T04:00:12;20.50;78.10
23499;DHT22;11926;48.120;11.562;2022-07-29T04:03:04;20.40;78.40
23499;DHT22;11926;48.120;11.562;2022-07-29T04:05:59;20.40;78.40
23499;DHT22;11926;48.120;11.562;2022-07-29T04:08:47;20.30;78.70
23499;DHT22;11926;48.120;11.562;2022-07-29T04:11:35;20.20;79.10
23499;DHT22;11926;48.120;11.562;2022-07-29T04:14:42;20.20;79.50
23499;DHT22;11926;48.120;11.562;2022-07-29T04:17:30;20.20;79.60
23499;DHT22;11926;48.120;11.562;2022-07-29T04:20:19;20.10;79.70
23499;DHT22;11926;48.120;11.562;2022-07-29T04:23:06;20.10;80.20
23499;DHT22;11926;48.120;11.562;2022-07-29T04:25:53;20.10;80.40
23499;DHT22;11926;48.120;11.562;2022-07-29T04:28:40;20.10;80.40
23499;DHT22;11926;48.120;11.562;2022-07-29T04:31:28;20.10;80.80
23499;DHT22;11926;48.120;11.562;2022-07-29T04:34:15;20.10;81.40
23499;DHT22;11926;48.120;11.562;2022-07-29T04:37:04;20.10;81.40
23499;DHT22;11926;48.120;11.562;2022-07-29T04:39:51;20.20;82.10
23499;DHT22;11926;48.120;11.562;2022-07-29T04:42:38;20.30;82.10
23499;DHT22;11926;48.120;11.562;2022-07-29T04:45:32;20.40;82.20
23499;DHT22;11926;48.120;11.562;2022-07-29T04:48:19;20.50;81.70
23499;DHT22;11926;48.120;11.562;2022-07-29T04:51:13;20.60;81.80
23499;DHT22;11926;48.120;11.562;2022-07-29T04:54:02;20.70;81.60
23499;DHT22;11926;48.120;11.562;2022-07-29T04:56:49;20.80;81.90
23499;DHT22;11926;48.120;11.562;2022-07-29T04:59:36;20.80;81.20
23499;DHT22;11926;48.120;11.562;2022-07-29T05:02:23;20.90;81.40
23499;DHT22;11926;48.120;11.562;2022-07-29T05:05:10;21.00;80.80
23499;DHT22;11926;48.120;11.562;2022-07-29T05:08:00;21.10;80.40
23499;DHT22;11926;48.120;11.562;2022-07-29T05:10:48;21.20;79.70
23499;DHT22;11926;48.120;11.562;2022-07-29T05:13:36;21.30;79.80
23499;DHT22;11926;48.120;11.562;2022-07-29T05:16:31;21.30;79.40
23499;DHT22;11926;48.120;11.562;2022-07-29T05:19:19;21.30;80.50
23499;DHT22;11926;48.120;11.562;2022-07-29T05:22:06;21.40;79.50
23499;DHT22;11926;48.120;11.562;2022-07-29T05:24:53;21.40;79.60
23499;DHT22;11926;48.120;11.562;2022-07-29T05:27:42;21.50;79.60
23499;DHT22;11926;48.120;11.562;2022-07-29T05:30:28;21.50;79.60
23499;DHT22;11926;48.120;11.562;2022-07-29T05:33:16;21.60;79.60
23499;DHT22;11926;48.120;11.562;2022-07-29T05:36:21;21.60;79.20
23499;DHT22;11926;48.120;11.562;2022-07-29T05:39:08;21.70;78.60
23499;DHT22;11926;48.120;11.562;2022-07-29T05:41:55;21.80;77.80
23499;DHT22;11926;48.120;11.562;2022-07-29T05:44:44;21.80;77.00
23499;DHT22;11926;48.120;11.562;2022-07-29T05:47:31;21.90;76.70
23499;DHT22;11926;48.120;11.562;2022-07-29T05:50:18;22.00;76.70
23499;DHT22;11926;48.120;11.562;2022-07-29T05:53:05;22.00;75.80
23499;DHT22;11926;48.120;11.562;2022-07-29T05:56:06;22.00;75.60
23499;DHT22;11926;48.120;11.562;2022-07-29T05:58:54;22.10;75.30
23499;DHT22;11926;48.120;11.562;2022-07-29T06:01:42;22.10;75.10
23499;DHT22;11926;48.120;11.562;2022-07-29T06:04:30;22.30;74.90
23499;DHT22;11926;48.120;11.562;2022-07-29T06:07:17;22.40;74.40
23499;DHT22;11926;48.120;11.562;2022-07-29T06:10:05;22.50;74.40
23499;DHT22;11926;48.120;11.562;2022-07-29T06:12:52;22.60;74.00
23499;DHT22;11926;48.120;11.562;2022-07-29T06:15:39;22.70;73.50
23499;DHT22;11926;48.120;11.562;2022-07-29T06:18:28;22.80;73.50
23499;DHT22;11926;48.120;11.562;2022-07-29T06:21:16;22.90;72.60
23499;DHT22;11926;48.120;11.562;2022-07-29T06:24:03;23.00;72.30
23499;DHT22;11926;48.120;11.562;2022-07-29T06:26:50;23.10;72.00
23499;DHT22;11926;48.120;11.562;2022-07-29T06:29:39;23.20;71.00
23499;DHT22;11926;48.120;11.562;2022-07-29T06:32:26;23.30;70.70
23499;DHT22;11926;48.120;11.562;2022-07-29T06:35:14;23.40;70.10
23499;DHT22;11926;48.120;11.562;2022-07-29T06:38:22;23.60;69.90
23499;DHT22;11926;48.120;11.562;2022-07-29T06:41:19;23.70;69.50
23499;DHT22;11926;48.120;11.562;2022-07-29T06:44:06;23.90;69.20
23499;DHT22;11926;48.120;11.562;2022-07-29T06:46:53;24.00;68.60
23499;DHT22;11926;48.120;11.562;2022-07-29T06:49:40;24.10;67.30
23499;DHT22;11926;48.120;11.562;2022-07-29T06:52:29;24.20;66.40
23499;DHT22;11926;48.120;11.562;2022-07-29T06:55:17;24.40;66.70
23499;DHT22;11926;48.120;11.562;2022-07-29T06:58:10;24.50;66.00
23499;DHT22;11926;48.120;11.562;2022-07-29T07:01:02;24.70;65.50
23499;DHT22;11926;48.120;11.562;2022-07-29T07:03:50;24.80;64.90
23499;DHT22;11926;48.120;11.562;2022-07-29T07:06:37;25.00;64.60
23499;DHT22;11926;48.120;11.562;2022-07-29T07:09:26;25.20;63.70
23499;DHT22;11926;48.120;11.562;2022-07-29T07:12:42;25.30;63.40
23499;DHT22;11926;48.120;11.562;2022-07-29T07:15:30;25.40;62.70
23499;DHT22;11926;48.120;11.562;2022-07-29T07:18:26;25.50;62.60
23499;DHT22;11926;48.120;11.562;2022-07-29T07:21:14;25.70;62.20
23499;DHT22;11926;48.120;11.562;2022-07-29T07:24:04;25.90;61.60
23499;DHT22;11926;48.120;11.562;2022-07-29T07:26:53;26.10;61.00
23499;DHT22;11926;48.120;11.562;2022-07-29T07:29:40;26.30;59.80
23499;DHT22;11926;48.120;11.562;2022-07-29T07:32:29;26.50;60.00
23499;DHT22;11926;48.120;11.562;2022-07-29T07:35:16;26.80;59.20
23499;DHT22;11926;48.120;11.562;2022-07-29T07:38:04;27.00;58.50
23499;DHT22;11926;48.120;11.562;2022-07-29T07:40:51;27.30;58.30
23499;DHT22;11926;48.120;11.562;2022-07-29T07:43:40;27.50;57.80
23499;DHT22;11926;48.120;11.562;2022-07-29T07:46:27;27.70;57.00
23499;DHT22;11926;48.120;11.562;2022-07-29T07:49:14;28.00;56.10
23499;DHT22;11926;48.120;11.562;2022-07-29T07:52:02;28.20;55.50
23499;DHT22;11926;48.120;11.562;2022-07-29T07:54:51;28.50;54.50
23499;DHT22;11926;48.120;11.562;2022-07-29T07:57:38;28.80;53.90
23499;DHT22;11926;48.120;11.562;2022-07-29T08:00:27;29.10;53.20
23499;DHT22;11926;48.120;11.562;2022-07-29T08:03:14;29.50;52.50
23499;DHT22;11926;48.120;11.562;2022-07-29T08:06:02;29.70;52.00
23499;DHT22;11926;48.120;11.562;2022-07-29T08:08:50;29.90;51.10
23499;DHT22;11926;48.120;11.562;2022-07-29T08:11:40;30.20;50.60
23499;DHT22;11926;48.120;11.562;2022-07-29T08:14:37;30.50;50.70
23499;DHT22;11926;48.120;11.562;2022-07-29T08:17:27;30.70;49.50
23499;DHT22;11926;48.120;11.562;2022-07-29T08:20:14;31.00;49.20
23499;DHT22;11926;48.120;11.562;2022-07-29T08:23:02;31.20;48.80
23499;DHT22;11926;48.120;11.562;2022-07-29T08:25:50;31.40;48.50
23499;DHT22;11926;48.120;11.562;2022-07-29T08:28:41;31.60;48.70
23499;DHT22;11926;48.120;11.562;2022-07-29T08:31:30;31.80;47.70
23499;DHT22;11926;48.120;11.562;2022-07-29T08:34:19;32.00;47.40
23499;DHT22;11926;48.120;11.562;2022-07-29T08:37:13;32.20;46.60
23499;DHT22;11926;48.120;11.562;2022-07-29T08:40:00;32.30;46.90
23499;DHT22;11926;48.120;11.562;2022-07-29T08:42:47;32.40;46.40
23499;DHT22;11926;48.120;11.562;2022-07-29T08:45:42;32.60;46.40
23499;DHT22;11926;48.120;11.562;2022-07-29T08:48:33;32.50;46.40
23499;DHT22;11926;48.120;11.562;2022-07-29T08:51:23;32.40;46.40
23499;DHT22;11926;48.120;11.562;2022-07-29T08:54:17;32.30;46.40
23499;DHT22;11926;48.120;11.562;2022-07-29T08:57:05;32.20;46.30
23499;DHT22;11926;48.120;11.562;2022-07-29T08:59:54;32.10;46.60
23499;DHT22;11926;48.120;11.562;2022-07-29T09:02:44;31.90;47.00
23499;DHT22;11926;48.120;11.562;2022-07-29T09:05:32;31.80;47.50
23499;DHT22;11926;48.120;11.562;2022-07-29T09:08:27;31.80;47.20
23499;DHT22;11926;48.120;11.562;2022-07-29T09:11:15;31.80;49.30
23499;DHT22;11926;48.120;11.562;2022-07-29T09:14:02;31.90;48.60
23499;DHT22;11926;48.120;11.562;2022-07-29T09:16:52;32.00;48.10
23499;DHT22;11926;48.120;11.562;2022-07-29T09:19:39;32.20;47.50
23499;DHT22;11926;48.120;11.562;2022-07-29T09:22:30;32.40;47.40
23499;DHT22;11926;48.120;11.562;2022-07-29T09:25:36;32.60;47.00
23499;DHT22;11926;48.120;11.562;2022-07-29T09:28:25;32.90;46.60
23499;DHT22;11926;48.120;11.562;2022-07-29T09:31:12;32.90;46.10
23499;DHT22;11926;48.120;11.562;2022-07-29T09:33:59;33.00;46.40
23499;DHT22;11926;48.120;11.562;2022-07-29T09:36:48;33.00;46.10
23499;DHT22;11926;48.120;11.562;2022-07-29T09:39:37;33.00;46.10
23499;DHT22;11926;48.120;11.562;2022-07-29T09:42:33;33.00;45.90
23499;DHT22;11926;48.120;11.562;2022-07-29T09:45:29;33.00;46.40
23499;DHT22;11926;48.120;11.562;2022-07-29T09:48:17;32.80;46.00
23499;DHT22;11926;48.120;11.562;2022-07-29T09:51:05;32.70;46.40
23499;DHT22;11926;48.120;11.562;2022-07-29T09:54:22;32.50;47.30
23499;DHT22;11926;48.120;11.562;2022-07-29T09:57:21;32.20;47.00
23499;DHT22;11926;48.120;11.562;2022-07-29T10:00:18;32.00;47.90
23499;DHT22;11926;48.120;11.562;2022-07-29T10:03:08;31.70;47.80
23499;DHT22;11926;48.120;11.562;2022-07-29T10:06:07;31.60;48.10
23499;DHT22;11926;48.120;11.562;2022-07-29T10:09:07;31.50;48.50
23499;DHT22;11926;48.120;11.562;2022-07-29T10:12:05;31.40;48.50
23499;DHT22;11926;48.120;11.562;2022-07-29T10:14:51;31.30;48.50
23499;DHT22;11926;48.120;11.562;2022-07-29T10:17:41;31.10;48.80
23499;DHT22;11926;48.120;11.562;2022-07-29T10:20:28;31.00;49.00
23499;DHT22;11926;48.120;11.562;2022-07-29T10:23:15;30.90;49.50
23499;DHT22;11926;48.120;11.562;2022-07-29T10:26:03;30.90;49.90
23499;DHT22;11926;48.120;11.562;2022-07-29T10:28:51;30.80;50.70
23499;DHT22;11926;48.120;11.562;2022-07-29T10:31:43;30.80;50.20
23499;DHT22;11926;48.120;11.562;2022-07-29T10:34:52;30.80;49.80
23499;DHT22;11926;48.120;11.562;2022-07-29T10:38:04;30.80;50.10
23499;DHT22;11926;48.120;11.562;2022-07-29T10:41:11;30.70;50.00
23499;DHT22;11926;48.120;11.562;2022-07-29T10:44:29;30.60;51.30
23499;DHT22;11926;48.120;11.562;2022-07-29T10:47:21;30.50;51.70
23499;DHT22;11926;48.120;11.562;2022-07-29T10:50:10;30.60;51.90
23499;DHT22;11926;48.120;11.562;2022-07-29T10:53:02;30.70;51.90
23499;DHT22;11926;48.120;11.562;2022-07-29T10:55:53;30.90;51.30
23499;DHT22;11926;48.120;11.562;2022-07-29T10:58:41;30.90;51.60
23499;DHT22;11926;48.120;11.562;2022-07-29T11:01:37;30.90;50.50
23499;DHT22;11926;48.120;11.562;2022-07-29T11:04:59;30.90;50.90
23499;DHT22;11926;48.120;11.562;2022-07-29T11:14:16;31.10;51.20
23499;DHT22;11926;48.120;11.562;2022-07-29T11:17:11;31.10;50.00
23499;DHT22;11926;48.120;11.562;2022-07-29T11:20:30;31.20;50.20
23499;DHT22;11926;48.120;11.562;2022-07-29T11:23:21;31.30;50.30
23499;DHT22;11926;48.120;11.562;2022-07-29T11:26:15;31.40;49.90
23499;DHT22;11926;48.120;11.562;2022-07-29T11:29:18;31.50;49.50
23499;DHT22;11926;48.120;11.562;2022-07-29T11:32:09;31.70;48.30
23499;DHT22;11926;48.120;11.562;2022-07-29T11:35:12;31.70;48.20
23499;DHT22;11926;48.120;11.562;2022-07-29T11:38:25;31.80;48.00
23499;DHT22;11926;48.120;11.562;2022-07-29T11:44:11;32.00;47.40
23499;DHT22;11926;48.120;11.562;2022-07-29T11:47:04;32.00;47.10
23499;DHT22;11926;48.120;11.562;2022-07-29T11:49:56;31.90;46.90
23499;DHT22;11926;48.120;11.562;2022-07-29T11:52:46;31.90;46.60
23499;DHT22;11926;48.120;11.562;2022-07-29T11:55:55;31.90;47.10
23499;DHT22;11926;48.120;11.562;2022-07-29T11:58:43;32.00;47.40
23499;DHT22;11926;48.120;11.562;2022-07-29T12:01:32;32.00;47.00
23499;DHT22;11926;48.120;11.562;2022-07-29T12:04:21;32.00;47.20
23499;DHT22;11926;48.120;11.562;2022-07-29T12:07:10;32.00;46.60
23499;DHT22;11926;48.120;11.562;2022-07-29T12:10:01;32.00;47.50
23499;DHT22;11926;48.120;11.562;2022-07-29T12:12:51;32.00;47.40
23499;DHT22;11926;48.120;11.562;2022-07-29T12:15:40;32.10;47.20
23499;DHT22;11926;48.120;11.562;2022-07-29T12:18:32;32.20;47.40
23499;DHT22;11926;48.120;11.562;2022-07-29T12:21:20;32.20;46.90
23499;DHT22;11926;48.120;11.562;2022-07-29T12:24:10;32.20;47.70
23499;DHT22;11926;48.120;11.562;2022-07-29T12:26:58;32.20;47.00
23499;DHT22;11926;48.120;11.562;2022-07-29T12:29:56;32.20;47.20
23499;DHT22;11926;48.120;11.562;2022-07-29T12:32:46;32.10;47.20
23499;DHT22;11926;48.120;11.562;2022-07-29T12:35:34;32.10;47.20
23499;DHT22;11926;48.120;11.562;2022-07-29T12:38:23;32.00;47.10
23499;DHT22;11926;48.120;11.562;2022-07-29T12:41:10;32.00;47.60
23499;DHT22;11926;48.120;11.562;2022-07-29T12:43:58;32.20;46.80
23499;DHT22;11926;48.120;11.562;2022-07-29T12:46:46;32.30;46.70
23499;DHT22;11926;48.120;11.562;2022-07-29T12:49:48;32.40;46.50
23499;DHT22;11926;48.120;11.562;2022-07-29T12:52:36;32.50;46.10
23499;DHT22;11926;48.120;11.562;2022-07-29T12:55:41;32.50;45.40
23499;DHT22;11926;48.120;11.562;2022-07-29T12:58:31;32.50;45.30
23499;DHT22;11926;48.120;11.562;2022-07-29T13:01:19;32.40;45.30
23499;DHT22;11926;48.120;11.562;2022-07-29T13:04:07;32.30;45.40
23499;DHT22;11926;48.120;11.562;2022-07-29T13:07:04;32.20;45.10
23499;DHT22;11926;48.120;11.562;2022-07-29T13:10:10;32.10;45.70
23499;DHT22;11926;48.120;11.562;2022-07-29T13:13:02;32.00;46.20
23499;DHT22;11926;48.120;11.562;2022-07-29T13:16:06;31.80;46.50
23499;DHT22;11926;48.120;11.562;2022-07-29T13:19:10;31.70;47.00
23499;DHT22;11926;48.120;11.562;2022-07-29T13:21:58;31.60;47.20
23499;DHT22;11926;48.120;11.562;2022-07-29T13:24:47;31.40;47.60
23499;DHT22;11926;48.120;11.562;2022-07-29T13:27:37;31.30;48.00
23499;DHT22;11926;48.120;11.562;2022-07-29T13:30:26;31.10;48.50
23499;DHT22;11926;48.120;11.562;2022-07-29T13:33:15;31.00;48.70
23499;DHT22;11926;48.120;11.562;2022-07-29T13:36:02;30.80;49.00
23499;DHT22;11926;48.120;11.562;2022-07-29T13:38:49;30.70;49.10
23499;DHT22;11926;48.120;11.562;2022-07-29T13:41:36;30.60;49.40
23499;DHT22;11926;48.120;11.562;2022-07-29T13:44:24;30.50;49.90
23499;DHT22;11926;48.120;11.562;2022-07-29T13:47:12;30.40;50.20
23499;DHT22;11926;48.120;11.562;2022-07-29T13:50:00;30.40;50.30
23499;DHT22;11926;48.120;11.562;2022-07-29T13:52:47;30.30;50.70
23499;DHT22;11926;48.120;11.562;2022-07-29T13:55:36;30.30;50.50
23499;DHT22;11926;48.120;11.562;2022-07-29T13:58:24;30.30;51.10
23499;DHT22;11926;48.120;11.562;2022-07-29T14:01:11;30.20;52.00
23499;DHT22;11926;48.120;11.562;2022-07-29T14:04:00;30.20;51.50
23499;DHT22;11926;48.120;11.562;2022-07-29T14:06:47;30.20;51.60
23499;DHT22;11926;48.120;11.562;2022-07-29T14:09:34;30.20;50.90
23499;DHT22;11926;48.120;11.562;2022-07-29T14:12:26;30.20;50.30
23499;DHT22;11926;48.120;11.562;2022-07-29T14:15:13;30.20;50.30
23499;DHT22;11926;48.120;11.562;2022-07-29T14:18:01;30.20;50.70
23499;DHT22;11926;48.120;11.562;2022-07-29T14:20:49;30.10;50.50
23499;DHT22;11926;48.120;11.562;2022-07-29T14:23:37;30.00;50.70
23499;DHT22;11926;48.120;11.562;2022-07-29T14:26:28;30.00;51.10
23499;DHT22;11926;48.120;11.562;2022-07-29T14:29:17;30.00;51.40
23499;DHT22;11926;48.120;11.562;2022-07-29T14:32:05;30.10;51.10
23499;DHT22;11926;48.120;11.562;2022-07-29T14:34:53;30.00;51.10
23499;DHT22;11926;48.120;11.562;2022-07-29T14:37:42;30.00;51.60
23499;DHT22;11926;48.120;11.562;2022-07-29T14:40:29;30.00;51.00
23499;DHT22;11926;48.120;11.562;2022-07-29T14:43:17;30.00;50.40
23499;DHT22;11926;48.120;11.562;2022-07-29T14:46:06;29.90;50.60
23499;DHT22;11926;48.120;11.562;2022-07-29T14:48:54;29.90;50.60
23499;DHT22;11926;48.120;11.562;2022-07-29T14:51:41;29.90;50.60
23499;DHT22;11926;48.120;11.562;2022-07-29T14:54:29;29.80;51.50
23499;DHT22;11926;48.120;11.562;2022-07-29T14:57:17;29.90;51.40
23499;DHT22;11926;48.120;11.562;2022-07-29T15:00:06;29.80;51.20
23499;DHT22;11926;48.120;11.562;2022-07-29T15:02:53;29.80;51.40
23499;DHT22;11926;48.120;11.562;2022-07-29T15:05:48;29.70;51.60
23499;DHT22;11926;48.120;11.562;2022-07-29T15:08:34;29.70;51.50
23499;DHT22;11926;48.120;11.562;2022-07-29T15:11:23;29.60;51.40
23499;DHT22;11926;48.120;11.562;2022-07-29T15:14:11;29.60;51.80
23499;DHT22;11926;48.120;11.562;2022-07-29T15:16:58;29.60;51.50
23499;DHT22;11926;48.120;11.562;2022-07-29T15:19:48;29.60;51.70
23499;DHT22;11926;48.120;11.562;2022-07-29T15:22:36;29.50;51.60
23499;DHT22;11926;48.120;11.562;2022-07-29T15:25:24;29.50;51.80
23499;DHT22;11926;48.120;11.562;2022-07-29T15:28:14;29.40;51.80
23499;DHT22;11926;48.120;11.562;2022-07-29T15:31:01;29.40;52.70
23499;DHT22;11926;48.120;11.562;2022-07-29T15:33:49;29.30;52.70
23499;DHT22;11926;48.120;11.562;2022-07-29T15:36:42;29.20;53.20
23499;DHT22;11926;48.120;11.562;2022-07-29T15:39:40;29.20;54.10
23499;DHT22;11926;48.120;11.562;2022-07-29T15:42:27;29.10;54.30
23499;DHT22;11926;48.120;11.562;2022-07-29T15:45:16;28.90;55.10
23499;DHT22;11926;48.120;11.562;2022-07-29T15:48:04;28.90;55.80
23499;DHT22;11926;48.120;11.562;2022-07-29T15:50:52;28.80;55.80
23499;DHT22;11926;48.120;11.562;2022-07-29T15:53:39;28.70;55.50
23499;DHT22;11926;48.120;11.562;2022-07-29T15:56:26;28.50;55.50
23499;DHT22;11926;48.120;11.562;2022-07-29T15:59:13;28.40;56.20
23499;DHT22;11926;48.120;11.562;2022-07-29T16:02:08;28.30;56.40
23499;DHT22;11926;48.120;11.562;2022-07-29T16:04:55;28.20;56.60
23499;DHT22;11926;48.120;11.562;2022-07-29T16:07:42;28.10;57.10
23499;DHT22;11926;48.120;11.562;2022-07-29T16:10:29;28.00;57.10
23499;DHT22;11926;48.120;11.562;2022-07-29T16:13:17;28.00;57.40
23499;DHT22;11926;48.120;11.562;2022-07-29T16:16:05;27.90;57.70
23499;DHT22;11926;48.120;11.562;2022-07-29T16:18:55;27.90;58.00
23499;DHT22;11926;48.120;11.562;2022-07-29T16:21:42;27.80;58.10
23499;DHT22;11926;48.120;11.562;2022-07-29T16:24:29;27.70;58.10
23499;DHT22;11926;48.120;11.562;2022-07-29T16:27:17;27.70;58.50
23499;DHT22;11926;48.120;11.562;2022-07-29T16:30:09;27.60;58.40
23499;DHT22;11926;48.120;11.562;2022-07-29T16:32:57;27.60;58.20
23499;DHT22;11926;48.120;11.562;2022-07-29T16:35:45;27.50;58.40
23499;DHT22;11926;48.120;11.562;2022-07-29T16:38:32;27.40;58.30
23499;DHT22;11926;48.120;11.562;2022-07-29T16:41:20;27.30;58.80
23499;DHT22;11926;48.120;11.562;2022-07-29T16:44:07;27.20;59.20
23499;DHT22;11926;48.120;11.562;2022-07-29T16:46:55;27.20;59.40
23499;DHT22;11926;48.120;11.562;2022-07-29T16:49:44;27.10;59.50
23499;DHT22;11926;48.120;11.562;2022-07-29T16:52:33;27.10;60.30
23499;DHT22;11926;48.120;11.562;2022-07-29T16:55:21;27.00;60.90
23499;DHT22;11926;48.120;11.562;2022-07-29T16:58:08;26.90;61.40
23499;DHT22;11926;48.120;11.562;2022-07-29T17:00:55;26.80;62.30
23499;DHT22;11926;48.120;11.562;2022-07-29T17:03:42;26.70;63.00
23499;DHT22;11926;48.120;11.562;2022-07-29T17:06:45;26.50;64.30
23499;DHT22;11926;48.120;11.562;2022-07-29T17:09:35;26.40;64.40
23499;DHT22;11926;48.120;11.562;2022-07-29T17:12:23;26.30;64.70
23499;DHT22;11926;48.120;11.562;2022-07-29T17:15:11;26.10;64.70
23499;DHT22;11926;48.120;11.562;2022-07-29T17:17:58;26.10;65.10
23499;DHT22;11926;48.120;11.562;2022-07-29T17:20:57;26.00;65.10
23499;DHT22;11926;48.120;11.562;2022-07-29T17:23:44;25.90;64.80
23499;DHT22;11926;48.120;11.562;2022-07-29T17:26:33;25.80;65.00
23499;DHT22;11926;48.120;11.562;2022-07-29T17:29:20;25.70;65.70
23499;DHT22;11926;48.120;11.562;2022-07-29T17:32:08;25.60;65.90
23499;DHT22;11926;48.120;11.562;2022-07-29T17:34:55;25.60;66.70
23499;DHT22;11926;48.120;11.562;2022-07-29T17:37:43;25.50;66.30
23499;DHT22;11926;48.120;11.562;2022-07-29T17:40:30;25.30;65.30
23499;DHT22;11926;48.120;11.562;2022-07-29T17:43:18;25.20;65.10
23499;DHT22;11926;48.120;11.562;2022-07-29T17:46:05;25.00;65.60
23499;DHT22;11926;48.120;11.562;2022-07-29T17:48:54;24.80;66.20